Aérodrome :
LOGIN :

S'inscrire | Disclaimer

   EN    FR    IT 

 










Légende :    VFR   VFR Marginal   IFR   IFR Intensif   IFR Très Intensif
Visi : 
Plafond : 
>= 8 km
>= 3000ft
5 à 8 km
1000 à 3000 ft
1500m à 5 km
500 à 1000 ft
800 à 1500m
200 à 500 ft
< 800m
< 200 ft
Symboles :   Orages  Brouillard  Fortes neiges  Fortes précipitations  Vent > 20 kt
SIGMETs :   Divers  Orages  Givrage  Turbulence  Onde Orograph.  Cendres Volcan.






- Altitude de l'aérodrome : 755 ft
- Code IATA : DRS


EDDC - Dresden Klotzsche

DERNIER METAR :
  • 230750Z AUTO 14004KT 080V180 CAVOK 22/13 Q1019 NOSIG

METARs EXPIRÉS :
  • 230720Z AUTO 13004KT 100V160 CAVOK 21/13 Q1019 NOSIG
  • 230650Z AUTO 13003KT 100V160 CAVOK 20/13 Q1019 NOSIG
  • 230620Z AUTO VRB01KT CAVOK 18/13 Q1019 NOSIG
  • 230550Z AUTO 19003KT CAVOK 17/13 Q1019 NOSIG
  • 230520Z AUTO 17005KT CAVOK 16/13 Q1019 NOSIG
  • 230450Z AUTO 20005KT 170V230 CAVOK 16/13 Q1019 NOSIG
  • 230420Z AUTO VRB02KT CAVOK 16/13 Q1019 NOSIG
  • 230350Z AUTO 19005KT CAVOK 15/13 Q1019 NOSIG
  • 230320Z AUTO VRB02KT CAVOK 15/13 Q1019

TAF TAF EDDC
Valide du 23 à 06h jusqu'au 24 à 06h UTC


230500Z 2306/2406 20004KT CAVOK
BECMG 2311/2313 27006KT
TEMPO 2316/2323 28015G35KT 4000 TSRA SCT014CB BKN020
BECMG 2323/2402 BKN012



MET'MAP, la Météo Aéronautique d'un coup d'oeil ! - Copyright ORBIFLY Décembre 2007 - Disclaimer

ORBIFLY MET'MAP TEAM :

Programmation & Développement : Alexandra Zaïnal
Sur une idée originale de : Baudouin d'Aumeries
Soutien technique & logistique : Manuel Goepfert
Assistance : Marc-Olivier Méhu




SOURCES & CREDITS :

   NOAA